sensor_id;sensor_type;location;lat;lon;timestamp;P1;durP1;ratioP1;P2;durP2;ratioP2
56517;SDS011;42419;48.760;2.322;2022-12-08T00:00:34;8.43;;;7.53;;
56517;SDS011;42419;48.760;2.322;2022-12-08T00:02:59;7.47;;;6.77;;
56517;SDS011;42419;48.760;2.322;2022-12-08T00:05:25;7.93;;;7.23;;
56517;SDS011;42419;48.760;2.322;2022-12-08T00:08:10;8.00;;;7.30;;
56517;SDS011;42419;48.760;2.322;2022-12-08T00:10:53;7.50;;;6.80;;
56517;SDS011;42419;48.760;2.322;2022-12-08T00:13:18;7.80;;;7.07;;
56517;SDS011;42419;48.760;2.322;2022-12-08T00:15:44;7.47;;;6.77;;
56517;SDS011;42419;48.760;2.322;2022-12-08T00:18:09;6.90;;;6.20;;
56517;SDS011;42419;48.760;2.322;2022-12-08T00:20:34;7.93;;;7.20;;
56517;SDS011;42419;48.760;2.322;2022-12-08T00:23:00;9.57;;;8.00;;
56517;SDS011;42419;48.760;2.322;2022-12-08T00:25:25;9.73;;;7.30;;
56517;SDS011;42419;48.760;2.322;2022-12-08T00:27:50;8.03;;;6.50;;
56517;SDS011;42419;48.760;2.322;2022-12-08T00:30:16;7.40;;;6.70;;
56517;SDS011;42419;48.760;2.322;2022-12-08T00:32:41;7.53;;;6.77;;
56517;SDS011;42419;48.760;2.322;2022-12-08T00:35:06;7.53;;;6.83;;
56517;SDS011;42419;48.760;2.322;2022-12-08T00:37:32;10.00;;;7.30;;
56517;SDS011;42419;48.760;2.322;2022-12-08T00:39:57;8.57;;;7.53;;
56517;SDS011;42419;48.760;2.322;2022-12-08T00:42:22;7.10;;;6.40;;
56517;SDS011;42419;48.760;2.322;2022-12-08T00:44:48;7.80;;;7.00;;
56517;SDS011;42419;48.760;2.322;2022-12-08T00:47:13;10.77;;;7.07;;
56517;SDS011;42419;48.760;2.322;2022-12-08T00:49:39;7.70;;;6.53;;
56517;SDS011;42419;48.760;2.322;2022-12-08T00:52:04;7.53;;;6.83;;
56517;SDS011;42419;48.760;2.322;2022-12-08T00:54:30;7.33;;;6.63;;
56517;SDS011;42419;48.760;2.322;2022-12-08T00:56:55;10.57;;;7.93;;
56517;SDS011;42419;48.760;2.322;2022-12-08T00:59:20;7.63;;;6.93;;
56517;SDS011;42419;48.760;2.322;2022-12-08T01:01:46;8.80;;;7.00;;
56517;SDS011;42419;48.760;2.322;2022-12-08T01:04:12;7.87;;;7.20;;
56517;SDS011;42419;48.760;2.322;2022-12-08T01:06:40;7.20;;;6.50;;
56517;SDS011;42419;48.760;2.322;2022-12-08T01:09:06;8.07;;;7.30;;
56517;SDS011;42419;48.760;2.322;2022-12-08T01:11:32;9.33;;;7.80;;
56517;SDS011;42419;48.760;2.322;2022-12-08T01:13:58;8.57;;;7.83;;
56517;SDS011;42419;48.760;2.322;2022-12-08T01:16:24;8.10;;;7.37;;
56517;SDS011;42419;48.760;2.322;2022-12-08T01:18:51;8.57;;;7.50;;
56517;SDS011;42419;48.760;2.322;2022-12-08T01:21:17;8.03;;;7.33;;
56517;SDS011;42419;48.760;2.322;2022-12-08T01:23:43;7.63;;;6.93;;
56517;SDS011;42419;48.760;2.322;2022-12-08T01:26:09;8.40;;;7.60;;
56517;SDS011;42419;48.760;2.322;2022-12-08T01:28:37;8.37;;;7.57;;
56517;SDS011;42419;48.760;2.322;2022-12-08T01:31:03;8.70;;;7.80;;
56517;SDS011;42419;48.760;2.322;2022-12-08T01:33:28;8.67;;;7.77;;
56517;SDS011;42419;48.760;2.322;2022-12-08T01:35:54;9.10;;;8.30;;
56517;SDS011;42419;48.760;2.322;2022-12-08T01:38:20;7.77;;;7.07;;
56517;SDS011;42419;48.760;2.322;2022-12-08T01:40:46;8.87;;;8.17;;
56517;SDS011;42419;48.760;2.322;2022-12-08T01:43:18;8.60;;;7.80;;
56517;SDS011;42419;48.760;2.322;2022-12-08T01:45:44;7.80;;;7.00;;
56517;SDS011;42419;48.760;2.322;2022-12-08T01:48:15;8.07;;;7.37;;
56517;SDS011;42419;48.760;2.322;2022-12-08T01:50:46;8.10;;;7.40;;
56517;SDS011;42419;48.760;2.322;2022-12-08T01:53:14;8.30;;;7.50;;
56517;SDS011;42419;48.760;2.322;2022-12-08T01:55:46;7.60;;;6.90;;
56517;SDS011;42419;48.760;2.322;2022-12-08T01:58:21;8.10;;;7.37;;
56517;SDS011;42419;48.760;2.322;2022-12-08T02:00:50;8.10;;;7.40;;
56517;SDS011;42419;48.760;2.322;2022-12-08T02:04:02;7.97;;;7.27;;
56517;SDS011;42419;48.760;2.322;2022-12-08T02:06:07;8.07;;;7.37;;
56517;SDS011;42419;48.760;2.322;2022-12-08T02:08:33;7.63;;;6.87;;
56517;SDS011;42419;48.760;2.322;2022-12-08T02:11:00;8.50;;;7.70;;
56517;SDS011;42419;48.760;2.322;2022-12-08T02:13:26;7.83;;;7.07;;
56517;SDS011;42419;48.760;2.322;2022-12-08T02:24:22;8.87;;;8.07;;
56517;SDS011;42419;48.760;2.322;2022-12-08T02:29:44;7.90;;;7.10;;
56517;SDS011;42419;48.760;2.322;2022-12-08T02:38:08;8.33;;;7.50;;
56517;SDS011;42419;48.760;2.322;2022-12-08T02:40:41;11.40;;;7.83;;
56517;SDS011;42419;48.760;2.322;2022-12-08T02:46:10;8.80;;;8.00;;
56517;SDS011;42419;48.760;2.322;2022-12-08T02:48:40;7.70;;;7.00;;
56517;SDS011;42419;48.760;2.322;2022-12-08T02:51:06;7.43;;;6.73;;
56517;SDS011;42419;48.760;2.322;2022-12-08T02:53:31;8.83;;;8.00;;
56517;SDS011;42419;48.760;2.322;2022-12-08T03:01:41;8.30;;;7.50;;
56517;SDS011;42419;48.760;2.322;2022-12-08T03:07:39;8.27;;;7.57;;
56517;SDS011;42419;48.760;2.322;2022-12-08T03:10:15;7.47;;;6.87;;
56517;SDS011;42419;48.760;2.322;2022-12-08T03:12:54;8.07;;;7.37;;
56517;SDS011;42419;48.760;2.322;2022-12-08T03:15:41;8.37;;;7.57;;
56517;SDS011;42419;48.760;2.322;2022-12-08T03:18:11;8.30;;;7.60;;
56517;SDS011;42419;48.760;2.322;2022-12-08T03:20:39;8.20;;;7.50;;
56517;SDS011;42419;48.760;2.322;2022-12-08T03:23:08;8.93;;;8.13;;
56517;SDS011;42419;48.760;2.322;2022-12-08T03:25:37;8.17;;;7.37;;
56517;SDS011;42419;48.760;2.322;2022-12-08T03:28:07;8.00;;;7.33;;
56517;SDS011;42419;48.760;2.322;2022-12-08T03:30:35;7.50;;;6.90;;
56517;SDS011;42419;48.760;2.322;2022-12-08T03:33:06;8.27;;;7.57;;
56517;SDS011;42419;48.760;2.322;2022-12-08T03:35:46;7.87;;;7.17;;
56517;SDS011;42419;48.760;2.322;2022-12-08T03:38:13;8.10;;;7.40;;
56517;SDS011;42419;48.760;2.322;2022-12-08T03:40:40;8.30;;;7.50;;
56517;SDS011;42419;48.760;2.322;2022-12-08T03:43:06;8.10;;;7.33;;
56517;SDS011;42419;48.760;2.322;2022-12-08T03:45:32;8.60;;;7.80;;
56517;SDS011;42419;48.760;2.322;2022-12-08T03:47:57;9.27;;;8.37;;
56517;SDS011;42419;48.760;2.322;2022-12-08T03:50:22;7.93;;;7.23;;
56517;SDS011;42419;48.760;2.322;2022-12-08T03:52:48;8.00;;;7.40;;
56517;SDS011;42419;48.760;2.322;2022-12-08T03:55:14;8.00;;;7.30;;
56517;SDS011;42419;48.760;2.322;2022-12-08T03:57:40;8.57;;;7.87;;
56517;SDS011;42419;48.760;2.322;2022-12-08T04:00:06;7.60;;;7.00;;
56517;SDS011;42419;48.760;2.322;2022-12-08T04:02:36;7.93;;;7.23;;
56517;SDS011;42419;48.760;2.322;2022-12-08T04:05:02;8.17;;;7.47;;
56517;SDS011;42419;48.760;2.322;2022-12-08T04:07:27;8.30;;;7.60;;
56517;SDS011;42419;48.760;2.322;2022-12-08T04:09:53;8.70;;;7.60;;
56517;SDS011;42419;48.760;2.322;2022-12-08T04:12:19;7.53;;;6.93;;
56517;SDS011;42419;48.760;2.322;2022-12-08T04:14:44;7.73;;;7.13;;
56517;SDS011;42419;48.760;2.322;2022-12-08T04:17:09;6.90;;;6.40;;
56517;SDS011;42419;48.760;2.322;2022-12-08T04:19:35;8.00;;;7.30;;
56517;SDS011;42419;48.760;2.322;2022-12-08T04:22:00;7.00;;;6.50;;
56517;SDS011;42419;48.760;2.322;2022-12-08T04:24:25;6.90;;;6.37;;
56517;SDS011;42419;48.760;2.322;2022-12-08T04:26:51;7.77;;;7.03;;
56517;SDS011;42419;48.760;2.322;2022-12-08T04:29:16;7.27;;;6.67;;
56517;SDS011;42419;48.760;2.322;2022-12-08T04:31:41;7.80;;;7.17;;
56517;SDS011;42419;48.760;2.322;2022-12-08T04:34:07;8.63;;;7.70;;
56517;SDS011;42419;48.760;2.322;2022-12-08T04:36:33;7.10;;;6.60;;
56517;SDS011;42419;48.760;2.322;2022-12-08T04:38:58;6.90;;;6.40;;
56517;SDS011;42419;48.760;2.322;2022-12-08T04:41:24;7.70;;;7.00;;
56517;SDS011;42419;48.760;2.322;2022-12-08T04:43:49;7.00;;;6.33;;
56517;SDS011;42419;48.760;2.322;2022-12-08T04:46:14;7.67;;;6.97;;
56517;SDS011;42419;48.760;2.322;2022-12-08T04:48:40;7.63;;;6.90;;
56517;SDS011;42419;48.760;2.322;2022-12-08T04:51:05;7.50;;;6.90;;
56517;SDS011;42419;48.760;2.322;2022-12-08T04:53:31;7.13;;;6.53;;
56517;SDS011;42419;48.760;2.322;2022-12-08T04:55:57;7.83;;;7.20;;
56517;SDS011;42419;48.760;2.322;2022-12-08T04:58:22;7.70;;;7.00;;
56517;SDS011;42419;48.760;2.322;2022-12-08T05:00:48;7.83;;;7.23;;
56517;SDS011;42419;48.760;2.322;2022-12-08T05:03:13;7.40;;;6.80;;
56517;SDS011;42419;48.760;2.322;2022-12-08T05:05:40;7.70;;;7.00;;
56517;SDS011;42419;48.760;2.322;2022-12-08T05:08:07;7.47;;;6.87;;
56517;SDS011;42419;48.760;2.322;2022-12-08T05:10:32;7.03;;;6.53;;
56517;SDS011;42419;48.760;2.322;2022-12-08T05:12:58;7.10;;;6.50;;
56517;SDS011;42419;48.760;2.322;2022-12-08T05:15:23;7.57;;;6.97;;
56517;SDS011;42419;48.760;2.322;2022-12-08T05:17:49;7.80;;;7.20;;
56517;SDS011;42419;48.760;2.322;2022-12-08T05:20:15;7.50;;;6.90;;
56517;SDS011;42419;48.760;2.322;2022-12-08T05:22:40;7.17;;;6.57;;
56517;SDS011;42419;48.760;2.322;2022-12-08T05:25:05;6.90;;;6.33;;
56517;SDS011;42419;48.760;2.322;2022-12-08T05:27:31;7.23;;;6.63;;
56517;SDS011;42419;48.760;2.322;2022-12-08T05:29:56;7.93;;;7.33;;
56517;SDS011;42419;48.760;2.322;2022-12-08T05:32:21;7.10;;;6.50;;
56517;SDS011;42419;48.760;2.322;2022-12-08T05:34:47;7.03;;;6.50;;
56517;SDS011;42419;48.760;2.322;2022-12-08T05:37:12;7.17;;;6.63;;
56517;SDS011;42419;48.760;2.322;2022-12-08T05:39:37;8.00;;;7.30;;
56517;SDS011;42419;48.760;2.322;2022-12-08T05:42:03;7.30;;;6.70;;
56517;SDS011;42419;48.760;2.322;2022-12-08T05:44:28;6.90;;;6.30;;
56517;SDS011;42419;48.760;2.322;2022-12-08T05:46:53;8.13;;;6.47;;
56517;SDS011;42419;48.760;2.322;2022-12-08T05:49:19;7.57;;;6.97;;
56517;SDS011;42419;48.760;2.322;2022-12-08T05:51:44;7.10;;;6.50;;
56517;SDS011;42419;48.760;2.322;2022-12-08T05:54:09;7.57;;;6.97;;
56517;SDS011;42419;48.760;2.322;2022-12-08T05:56:35;6.23;;;5.73;;
56517;SDS011;42419;48.760;2.322;2022-12-08T05:59:00;7.20;;;6.67;;
56517;SDS011;42419;48.760;2.322;2022-12-08T06:01:27;7.83;;;7.03;;
56517;SDS011;42419;48.760;2.322;2022-12-08T06:03:54;7.47;;;6.87;;
56517;SDS011;42419;48.760;2.322;2022-12-08T06:06:21;8.03;;;7.23;;
56517;SDS011;42419;48.760;2.322;2022-12-08T06:08:46;7.20;;;6.60;;
56517;SDS011;42419;48.760;2.322;2022-12-08T06:13:48;7.17;;;6.57;;
56517;SDS011;42419;48.760;2.322;2022-12-08T06:16:13;6.90;;;6.30;;
56517;SDS011;42419;48.760;2.322;2022-12-08T06:18:39;7.57;;;6.97;;
56517;SDS011;42419;48.760;2.322;2022-12-08T06:21:08;7.13;;;6.53;;
56517;SDS011;42419;48.760;2.322;2022-12-08T06:23:36;7.23;;;6.63;;
56517;SDS011;42419;48.760;2.322;2022-12-08T06:26:02;7.33;;;6.73;;
56517;SDS011;42419;48.760;2.322;2022-12-08T06:28:38;7.10;;;6.50;;
56517;SDS011;42419;48.760;2.322;2022-12-08T06:31:08;7.00;;;6.30;;
56517;SDS011;42419;48.760;2.322;2022-12-08T06:33:39;7.20;;;6.57;;
56517;SDS011;42419;48.760;2.322;2022-12-08T06:36:05;7.33;;;6.83;;
56517;SDS011;42419;48.760;2.322;2022-12-08T06:38:31;7.43;;;6.63;;
56517;SDS011;42419;48.760;2.322;2022-12-08T06:40:57;6.93;;;6.30;;
56517;SDS011;42419;48.760;2.322;2022-12-08T06:43:23;7.07;;;6.50;;
56517;SDS011;42419;48.760;2.322;2022-12-08T06:45:49;6.60;;;6.03;;
56517;SDS011;42419;48.760;2.322;2022-12-08T06:48:14;6.80;;;6.20;;
56517;SDS011;42419;48.760;2.322;2022-12-08T06:50:40;6.90;;;6.30;;
56517;SDS011;42419;48.760;2.322;2022-12-08T06:53:05;6.70;;;6.07;;
56517;SDS011;42419;48.760;2.322;2022-12-08T06:55:30;6.73;;;6.23;;
56517;SDS011;42419;48.760;2.322;2022-12-08T06:57:56;6.57;;;6.07;;
56517;SDS011;42419;48.760;2.322;2022-12-08T07:00:21;7.17;;;6.50;;
56517;SDS011;42419;48.760;2.322;2022-12-08T07:02:47;6.90;;;6.30;;
56517;SDS011;42419;48.760;2.322;2022-12-08T07:05:12;6.97;;;6.47;;
56517;SDS011;42419;48.760;2.322;2022-12-08T07:07:38;6.87;;;6.27;;
56517;SDS011;42419;48.760;2.322;2022-12-08T07:10:03;8.10;;;6.77;;
56517;SDS011;42419;48.760;2.322;2022-12-08T07:12:29;7.03;;;6.43;;
56517;SDS011;42419;48.760;2.322;2022-12-08T07:14:55;6.57;;;6.07;;
56517;SDS011;42419;48.760;2.322;2022-12-08T07:17:20;7.30;;;6.60;;
56517;SDS011;42419;48.760;2.322;2022-12-08T07:19:45;9.83;;;6.20;;
56517;SDS011;42419;48.760;2.322;2022-12-08T07:22:11;6.67;;;6.07;;
56517;SDS011;42419;48.760;2.322;2022-12-08T07:24:36;6.47;;;5.97;;
56517;SDS011;42419;48.760;2.322;2022-12-08T07:27:01;6.40;;;5.90;;
56517;SDS011;42419;48.760;2.322;2022-12-08T07:29:27;7.27;;;6.63;;
56517;SDS011;42419;48.760;2.322;2022-12-08T07:31:52;6.13;;;5.60;;
56517;SDS011;42419;48.760;2.322;2022-12-08T07:34:17;6.77;;;6.17;;
56517;SDS011;42419;48.760;2.322;2022-12-08T07:36:43;7.13;;;5.87;;
56517;SDS011;42419;48.760;2.322;2022-12-08T07:39:08;6.97;;;6.27;;
56517;SDS011;42419;48.760;2.322;2022-12-08T07:41:33;6.50;;;5.90;;
56517;SDS011;42419;48.760;2.322;2022-12-08T07:43:58;6.70;;;6.03;;
56517;SDS011;42419;48.760;2.322;2022-12-08T07:46:24;6.50;;;6.00;;
56517;SDS011;42419;48.760;2.322;2022-12-08T07:48:50;6.23;;;5.70;;
56517;SDS011;42419;48.760;2.322;2022-12-08T07:51:19;8.73;;;5.60;;
56517;SDS011;42419;48.760;2.322;2022-12-08T07:53:45;6.60;;;6.00;;
56517;SDS011;42419;48.760;2.322;2022-12-08T07:56:12;6.80;;;6.20;;
56517;SDS011;42419;48.760;2.322;2022-12-08T07:58:38;6.83;;;5.47;;
56517;SDS011;42419;48.760;2.322;2022-12-08T08:01:05;5.83;;;5.30;;
56517;SDS011;42419;48.760;2.322;2022-12-08T08:03:30;6.83;;;6.13;;
56517;SDS011;42419;48.760;2.322;2022-12-08T08:06:03;7.10;;;6.40;;
56517;SDS011;42419;48.760;2.322;2022-12-08T08:08:28;6.17;;;5.67;;
56517;SDS011;42419;48.760;2.322;2022-12-08T08:10:53;5.67;;;5.27;;
56517;SDS011;42419;48.760;2.322;2022-12-08T08:13:19;6.00;;;5.60;;
56517;SDS011;42419;48.760;2.322;2022-12-08T08:15:44;5.80;;;5.30;;
56517;SDS011;42419;48.760;2.322;2022-12-08T08:18:10;5.60;;;5.20;;
56517;SDS011;42419;48.760;2.322;2022-12-08T08:20:36;8.63;;;5.50;;
56517;SDS011;42419;48.760;2.322;2022-12-08T08:23:01;10.40;;;5.40;;
56517;SDS011;42419;48.760;2.322;2022-12-08T08:25:26;6.20;;;5.30;;
56517;SDS011;42419;48.760;2.322;2022-12-08T08:27:52;6.30;;;5.50;;
56517;SDS011;42419;48.760;2.322;2022-12-08T08:30:18;5.90;;;5.40;;
56517;SDS011;42419;48.760;2.322;2022-12-08T08:32:43;5.77;;;5.27;;
56517;SDS011;42419;48.760;2.322;2022-12-08T08:35:09;6.07;;;5.47;;
56517;SDS011;42419;48.760;2.322;2022-12-08T08:37:34;5.13;;;4.73;;
56517;SDS011;42419;48.760;2.322;2022-12-08T08:40:00;7.50;;;5.60;;
56517;SDS011;42419;48.760;2.322;2022-12-08T08:42:25;7.50;;;5.00;;
56517;SDS011;42419;48.760;2.322;2022-12-08T08:44:50;5.67;;;5.20;;
56517;SDS011;42419;48.760;2.322;2022-12-08T08:47:16;5.30;;;4.90;;
56517;SDS011;42419;48.760;2.322;2022-12-08T08:49:41;5.20;;;4.80;;
56517;SDS011;42419;48.760;2.322;2022-12-08T08:52:06;6.43;;;5.93;;
56517;SDS011;42419;48.760;2.322;2022-12-08T08:54:32;5.33;;;4.93;;
56517;SDS011;42419;48.760;2.322;2022-12-08T08:56:59;5.67;;;5.03;;
56517;SDS011;42419;48.760;2.322;2022-12-08T08:59:25;6.23;;;5.47;;
56517;SDS011;42419;48.760;2.322;2022-12-08T09:01:51;4.70;;;4.40;;
56517;SDS011;42419;48.760;2.322;2022-12-08T09:04:17;4.70;;;4.30;;
56517;SDS011;42419;48.760;2.322;2022-12-08T09:06:44;5.10;;;4.70;;
56517;SDS011;42419;48.760;2.322;2022-12-08T09:09:09;5.20;;;4.80;;
56517;SDS011;42419;48.760;2.322;2022-12-08T09:11:35;5.10;;;4.67;;
56517;SDS011;42419;48.760;2.322;2022-12-08T09:14:01;4.87;;;4.43;;
56517;SDS011;42419;48.760;2.322;2022-12-08T09:16:26;5.33;;;4.53;;
56517;SDS011;42419;48.760;2.322;2022-12-08T09:18:53;9.90;;;4.53;;
56517;SDS011;42419;48.760;2.322;2022-12-08T09:21:21;5.10;;;4.63;;
56517;SDS011;42419;48.760;2.322;2022-12-08T09:23:49;5.53;;;4.30;;
56517;SDS011;42419;48.760;2.322;2022-12-08T09:26:15;11.90;;;6.37;;
56517;SDS011;42419;48.760;2.322;2022-12-08T09:28:41;15.50;;;6.87;;
56517;SDS011;42419;48.760;2.322;2022-12-08T09:31:13;15.33;;;6.67;;
56517;SDS011;42419;48.760;2.322;2022-12-08T09:33:38;13.63;;;7.60;;
56517;SDS011;42419;48.760;2.322;2022-12-08T09:36:04;10.93;;;6.50;;
56517;SDS011;42419;48.760;2.322;2022-12-08T09:38:30;15.67;;;7.50;;
56517;SDS011;42419;48.760;2.322;2022-12-08T09:40:55;12.70;;;6.30;;
56517;SDS011;42419;48.760;2.322;2022-12-08T09:46:19;10.70;;;6.07;;
56517;SDS011;42419;48.760;2.322;2022-12-08T09:48:56;9.27;;;5.90;;
56517;SDS011;42419;48.760;2.322;2022-12-08T09:51:23;8.07;;;5.50;;
56517;SDS011;42419;48.760;2.322;2022-12-08T09:53:52;11.87;;;5.40;;
56517;SDS011;42419;48.760;2.322;2022-12-08T09:56:22;8.13;;;5.50;;
56517;SDS011;42419;48.760;2.322;2022-12-08T09:58:57;7.60;;;5.87;;
56517;SDS011;42419;48.760;2.322;2022-12-08T10:01:27;7.60;;;5.90;;
56517;SDS011;42419;48.760;2.322;2022-12-08T10:03:55;6.13;;;5.10;;
56517;SDS011;42419;48.760;2.322;2022-12-08T10:14:13;5.83;;;5.07;;
56517;SDS011;42419;48.760;2.322;2022-12-08T10:17:03;4.90;;;4.40;;
56517;SDS011;42419;48.760;2.322;2022-12-08T10:19:35;7.50;;;5.00;;
56517;SDS011;42419;48.760;2.322;2022-12-08T10:22:08;5.67;;;4.57;;
56517;SDS011;42419;48.760;2.322;2022-12-08T10:24:43;5.67;;;5.00;;
56517;SDS011;42419;48.760;2.322;2022-12-08T10:27:17;5.00;;;4.50;;
56517;SDS011;42419;48.760;2.322;2022-12-08T10:29:42;6.00;;;5.40;;
56517;SDS011;42419;48.760;2.322;2022-12-08T10:32:18;5.73;;;5.13;;
56517;SDS011;42419;48.760;2.322;2022-12-08T10:37:23;5.37;;;4.77;;
56517;SDS011;42419;48.760;2.322;2022-12-08T10:39:48;6.63;;;4.97;;
56517;SDS011;42419;48.760;2.322;2022-12-08T10:42:24;5.53;;;4.70;;
56517;SDS011;42419;48.760;2.322;2022-12-08T10:47:35;5.37;;;4.67;;
56517;SDS011;42419;48.760;2.322;2022-12-08T10:50:17;4.40;;;4.00;;
56517;SDS011;42419;48.760;2.322;2022-12-08T10:52:45;6.20;;;4.90;;
56517;SDS011;42419;48.760;2.322;2022-12-08T10:55:19;4.50;;;4.10;;
56517;SDS011;42419;48.760;2.322;2022-12-08T10:57:45;6.60;;;4.40;;
56517;SDS011;42419;48.760;2.322;2022-12-08T11:00:17;5.53;;;3.90;;
56517;SDS011;42419;48.760;2.322;2022-12-08T11:02:54;4.73;;;4.33;;
56517;SDS011;42419;48.760;2.322;2022-12-08T11:05:23;4.43;;;4.03;;
56517;SDS011;42419;48.760;2.322;2022-12-08T11:07:52;4.67;;;3.87;;
56517;SDS011;42419;48.760;2.322;2022-12-08T11:10:20;4.13;;;3.83;;
56517;SDS011;42419;48.760;2.322;2022-12-08T11:12:54;4.73;;;4.33;;
56517;SDS011;42419;48.760;2.322;2022-12-08T11:15:29;7.33;;;3.90;;
56517;SDS011;42419;48.760;2.322;2022-12-08T11:17:59;4.50;;;4.20;;
56517;SDS011;42419;48.760;2.322;2022-12-08T11:20:37;4.07;;;3.67;;
56517;SDS011;42419;48.760;2.322;2022-12-08T11:23:16;5.13;;;4.47;;
56517;SDS011;42419;48.760;2.322;2022-12-08T11:25:43;5.00;;;4.57;;
56517;SDS011;42419;48.760;2.322;2022-12-08T11:28:08;4.67;;;4.27;;
56517;SDS011;42419;48.760;2.322;2022-12-08T11:30:36;4.67;;;4.27;;
56517;SDS011;42419;48.760;2.322;2022-12-08T11:35:56;4.00;;;3.70;;
56517;SDS011;42419;48.760;2.322;2022-12-08T11:38:26;5.00;;;4.50;;
56517;SDS011;42419;48.760;2.322;2022-12-08T11:41:09;4.40;;;4.10;;
56517;SDS011;42419;48.760;2.322;2022-12-08T11:43:41;4.30;;;3.90;;
56517;SDS011;42419;48.760;2.322;2022-12-08T11:46:22;4.07;;;3.77;;
56517;SDS011;42419;48.760;2.322;2022-12-08T11:48:58;4.83;;;4.10;;
56517;SDS011;42419;48.760;2.322;2022-12-08T11:51:31;3.83;;;3.53;;
56517;SDS011;42419;48.760;2.322;2022-12-08T11:54:11;5.00;;;4.10;;
56517;SDS011;42419;48.760;2.322;2022-12-08T11:56:46;4.07;;;3.67;;
56517;SDS011;42419;48.760;2.322;2022-12-08T12:01:56;4.10;;;3.50;;
56517;SDS011;42419;48.760;2.322;2022-12-08T12:12:31;3.80;;;3.50;;
56517;SDS011;42419;48.760;2.322;2022-12-08T12:20:57;3.93;;;3.67;;
56517;SDS011;42419;48.760;2.322;2022-12-08T12:23:15;3.93;;;3.63;;
56517;SDS011;42419;48.760;2.322;2022-12-08T12:25:49;4.20;;;3.80;;
56517;SDS011;42419;48.760;2.322;2022-12-08T12:28:21;4.10;;;3.77;;
56517;SDS011;42419;48.760;2.322;2022-12-08T12:30:57;4.33;;;4.00;;
56517;SDS011;42419;48.760;2.322;2022-12-08T12:33:29;4.30;;;4.00;;
56517;SDS011;42419;48.760;2.322;2022-12-08T12:35:55;5.00;;;4.50;;
56517;SDS011;42419;48.760;2.322;2022-12-08T12:38:36;4.63;;;4.27;;
56517;SDS011;42419;48.760;2.322;2022-12-08T12:41:24;4.90;;;4.50;;
56517;SDS011;42419;48.760;2.322;2022-12-08T12:46:37;5.23;;;4.77;;
56517;SDS011;42419;48.760;2.322;2022-12-08T12:51:59;5.07;;;4.37;;
56517;SDS011;42419;48.760;2.322;2022-12-08T12:54:26;5.20;;;4.80;;
56517;SDS011;42419;48.760;2.322;2022-12-08T13:02:18;5.17;;;4.70;;
56517;SDS011;42419;48.760;2.322;2022-12-08T13:04:50;5.43;;;4.83;;
56517;SDS011;42419;48.760;2.322;2022-12-08T13:07:32;4.73;;;4.33;;
56517;SDS011;42419;48.760;2.322;2022-12-08T13:10:02;5.17;;;4.70;;
56517;SDS011;42419;48.760;2.322;2022-12-08T13:12:28;4.97;;;4.57;;
56517;SDS011;42419;48.760;2.322;2022-12-08T13:14:55;5.60;;;5.10;;
56517;SDS011;42419;48.760;2.322;2022-12-08T13:17:27;5.07;;;4.57;;
56517;SDS011;42419;48.760;2.322;2022-12-08T13:19:59;4.93;;;4.53;;
56517;SDS011;42419;48.760;2.322;2022-12-08T13:28:27;5.83;;;5.20;;
56517;SDS011;42419;48.760;2.322;2022-12-08T13:30:58;4.80;;;4.40;;
56517;SDS011;42419;48.760;2.322;2022-12-08T13:33:31;5.60;;;5.20;;
56517;SDS011;42419;48.760;2.322;2022-12-08T13:36:24;5.53;;;5.03;;
56517;SDS011;42419;48.760;2.322;2022-12-08T13:38:53;5.53;;;5.03;;
56517;SDS011;42419;48.760;2.322;2022-12-08T13:41:23;4.77;;;4.37;;
56517;SDS011;42419;48.760;2.322;2022-12-08T13:44:03;5.67;;;5.10;;
56517;SDS011;42419;48.760;2.322;2022-12-08T13:46:36;4.77;;;4.37;;
56517;SDS011;42419;48.760;2.322;2022-12-08T13:49:08;5.23;;;4.73;;
56517;SDS011;42419;48.760;2.322;2022-12-08T13:51:41;5.03;;;4.63;;
56517;SDS011;42419;48.760;2.322;2022-12-08T13:54:16;5.20;;;4.70;;
56517;SDS011;42419;48.760;2.322;2022-12-08T13:56:53;4.87;;;4.47;;
56517;SDS011;42419;48.760;2.322;2022-12-08T13:59:30;5.33;;;4.83;;
56517;SDS011;42419;48.760;2.322;2022-12-08T14:02:00;5.00;;;4.60;;
56517;SDS011;42419;48.760;2.322;2022-12-08T14:04:29;5.80;;;5.20;;
56517;SDS011;42419;48.760;2.322;2022-12-08T14:06:57;4.90;;;4.50;;
56517;SDS011;42419;48.760;2.322;2022-12-08T14:09:26;5.80;;;5.20;;
56517;SDS011;42419;48.760;2.322;2022-12-08T14:12:00;6.30;;;5.23;;
56517;SDS011;42419;48.760;2.322;2022-12-08T14:14:30;5.77;;;5.20;;
56517;SDS011;42419;48.760;2.322;2022-12-08T14:17:02;5.10;;;4.70;;
56517;SDS011;42419;48.760;2.322;2022-12-08T14:19:30;5.70;;;5.10;;
56517;SDS011;42419;48.760;2.322;2022-12-08T14:22:16;5.00;;;4.60;;
56517;SDS011;42419;48.760;2.322;2022-12-08T14:24:45;5.60;;;5.10;;
56517;SDS011;42419;48.760;2.322;2022-12-08T14:27:18;5.33;;;4.83;;
56517;SDS011;42419;48.760;2.322;2022-12-08T14:29:49;4.90;;;4.40;;
56517;SDS011;42419;48.760;2.322;2022-12-08T14:32:24;5.23;;;4.80;;
56517;SDS011;42419;48.760;2.322;2022-12-08T14:37:54;5.73;;;5.13;;
56517;SDS011;42419;48.760;2.322;2022-12-08T14:40:21;5.30;;;4.27;;
56517;SDS011;42419;48.760;2.322;2022-12-08T14:53:29;5.40;;;4.90;;
56517;SDS011;42419;48.760;2.322;2022-12-08T14:56:37;5.47;;;5.00;;
56517;SDS011;42419;48.760;2.322;2022-12-08T14:59:11;5.40;;;4.90;;
56517;SDS011;42419;48.760;2.322;2022-12-08T15:01:40;5.03;;;4.63;;
56517;SDS011;42419;48.760;2.322;2022-12-08T15:06:44;4.87;;;4.43;;
56517;SDS011;42419;48.760;2.322;2022-12-08T15:09:24;5.17;;;4.67;;
56517;SDS011;42419;48.760;2.322;2022-12-08T15:12:00;5.33;;;4.93;;
56517;SDS011;42419;48.760;2.322;2022-12-08T15:14:35;5.30;;;4.90;;
56517;SDS011;42419;48.760;2.322;2022-12-08T15:17:02;4.67;;;4.37;;
56517;SDS011;42419;48.760;2.322;2022-12-08T15:19:54;5.77;;;4.83;;
56517;SDS011;42419;48.760;2.322;2022-12-08T15:22:20;4.13;;;3.83;;
56517;SDS011;42419;48.760;2.322;2022-12-08T15:24:47;4.73;;;4.33;;
56517;SDS011;42419;48.760;2.322;2022-12-08T15:27:19;4.70;;;4.30;;
56517;SDS011;42419;48.760;2.322;2022-12-08T15:29:47;4.93;;;3.80;;
56517;SDS011;42419;48.760;2.322;2022-12-08T15:32:15;4.90;;;4.50;;
56517;SDS011;42419;48.760;2.322;2022-12-08T15:34:42;4.70;;;4.30;;
56517;SDS011;42419;48.760;2.322;2022-12-08T15:37:12;5.03;;;4.27;;
56517;SDS011;42419;48.760;2.322;2022-12-08T15:39:46;4.80;;;4.40;;
56517;SDS011;42419;48.760;2.322;2022-12-08T15:42:12;5.23;;;4.73;;
56517;SDS011;42419;48.760;2.322;2022-12-08T15:44:37;3.90;;;3.60;;
56517;SDS011;42419;48.760;2.322;2022-12-08T15:47:03;5.10;;;4.60;;
56517;SDS011;42419;48.760;2.322;2022-12-08T15:49:29;4.90;;;4.50;;
56517;SDS011;42419;48.760;2.322;2022-12-08T15:51:55;5.20;;;4.80;;
56517;SDS011;42419;48.760;2.322;2022-12-08T15:54:21;4.60;;;4.20;;
56517;SDS011;42419;48.760;2.322;2022-12-08T15:56:53;4.30;;;3.93;;
56517;SDS011;42419;48.760;2.322;2022-12-08T15:59:22;4.80;;;4.40;;
56517;SDS011;42419;48.760;2.322;2022-12-08T16:01:49;4.90;;;4.50;;
56517;SDS011;42419;48.760;2.322;2022-12-08T16:04:17;4.87;;;4.47;;
56517;SDS011;42419;48.760;2.322;2022-12-08T16:06:45;4.47;;;4.07;;
56517;SDS011;42419;48.760;2.322;2022-12-08T16:09:16;4.47;;;4.10;;
56517;SDS011;42419;48.760;2.322;2022-12-08T16:11:42;5.13;;;4.33;;
56517;SDS011;42419;48.760;2.322;2022-12-08T16:14:26;4.50;;;4.17;;
56517;SDS011;42419;48.760;2.322;2022-12-08T16:16:51;4.87;;;4.47;;
56517;SDS011;42419;48.760;2.322;2022-12-08T16:19:17;4.70;;;4.30;;
56517;SDS011;42419;48.760;2.322;2022-12-08T16:21:42;4.30;;;4.00;;
56517;SDS011;42419;48.760;2.322;2022-12-08T16:24:07;4.80;;;4.40;;
56517;SDS011;42419;48.760;2.322;2022-12-08T16:26:33;4.13;;;3.83;;
56517;SDS011;42419;48.760;2.322;2022-12-08T16:28:58;4.07;;;3.77;;
56517;SDS011;42419;48.760;2.322;2022-12-08T16:31:23;4.00;;;3.70;;
56517;SDS011;42419;48.760;2.322;2022-12-08T16:33:49;5.50;;;5.00;;
56517;SDS011;42419;48.760;2.322;2022-12-08T16:36:14;4.60;;;4.20;;